• Join FlightAware (Why Join?)
  • Login
  • US Flag 
01:05PM EDT


 

Airport Tracker/Info


-or-


 

Live Flight TrackerFlight Track Log ✈ TAM3711 ✈ 29-Aug-2013 ✈ SBBR / BSB - SBSP / CGH

Flight Track Log - Related Links

Times and Time Zones

All times are in EDT time to prevent confusion due to time zone crossing. See the TAM3711 flight status page for this flight to view local times or setup timezone preferences in your user account.

Time Position Orientation Groundspeed Altitude Reporting Facility
EDT Latitude Longitude Course Direction KTS MPH feet Rate Location/Type
06:59AM -17.9801 -47.5816 172° South  Level Estimated
07:00AM -18.0809 -47.5656 171° South  Level Estimated
07:01AM -18.1817 -47.5496 171° South  Level Estimated
07:02AM -18.2825 -47.5336 171° South  Level Estimated
07:03AM -18.3834 -47.5176 171° South  Level Estimated
07:04AM -18.4842 -47.5016 171° South  Level Estimated
07:05AM -18.5850 -47.4856 171° South  Level Estimated
07:06AM -18.6858 -47.4695 171° South  Level Estimated
07:07AM -18.7866 -47.4534 171° South  Level Estimated
07:08AM -18.8874 -47.4373 171° South  Level Estimated
07:09AM -18.9882 -47.4212 171° South  Level Estimated
07:10AM -19.0890 -47.4050 171° South  Level Estimated
07:11AM -19.1898 -47.3888 171° South  Level Estimated
07:12AM -19.2906 -47.3727 171° South  Level Estimated
07:13AM -19.3914 -47.3564 171° South  Level Estimated
07:14AM -19.4922 -47.3402 171° South  Level Estimated
07:15AM -19.5930 -47.3240 171° South  Level Estimated
07:16AM -19.6938 -47.3077 171° South  Level Estimated
07:17AM -19.7946 -47.2914 171° South  Level Estimated
07:18AM -19.8954 -47.2751 171° South  Level Estimated
07:19AM -19.9962 -47.2588 171° South  Level Estimated
07:20AM -20.0970 -47.2424 171° South  Level Estimated
07:21AM -20.1978 -47.2260 171° South  Level Estimated
07:22AM -20.2986 -47.2096 171° South  Level Estimated
07:23AM -20.3994 -47.1932 171° South  Level Estimated
07:24AM -20.5002 -47.1768 171° South  Level Estimated
07:25AM -20.6009 -47.1604 171° South  Level Estimated
07:26AM -20.7017 -47.1439 171° South  Level Estimated
07:27AM -20.8025 -47.1274 171° South  Level Estimated
07:28AM -20.9033 -47.1109 171° South  Level Estimated
07:29AM -21.0041 -47.0943 171° South  Level Estimated
07:30AM -21.1048 -47.0777 171° South  Level Estimated
07:31AM -21.2056 -47.0611 171° South  Level Estimated
07:32AM -21.3064 -47.0445 171° South  Level Estimated
07:33AM -21.4072 -47.0279 171° South  Level Estimated
07:34AM -21.5079 -47.0112 171° South  Level Estimated
07:35AM -21.6087 -46.9946 171° South  Level Estimated
07:36AM -21.7095 -46.9779 171° South  Level Estimated
07:37AM -21.8102 -46.9611 171° South  Level Estimated
07:38AM -21.9110 -46.9444 171° South  Level Estimated
07:39AM -22.0117 -46.9276 171° South  Level Estimated
07:40AM -22.1125 -46.9108 171° South  Level Estimated
07:41AM -22.2133 -46.8940 171° South  Level Estimated
07:42AM -22.3140 -46.8772 171° South  Level Estimated
07:43AM -22.4148 -46.8603 171° South  Level Estimated
07:44AM -22.5155 -46.8434 171° South  Level Estimated
07:45AM -22.6163 -46.8265 171° South  Level Estimated
07:46AM -22.7170 -46.8095 171° South  Level Estimated
07:47AM -22.8178 -46.7926 171° South  Level Estimated
07:48AM -22.9185 -46.7756 171° South  Level Estimated
07:49AM -23.0193 -46.7585 171° South  Level Estimated
07:50AM -23.1200 -46.7415 171° South  Level Estimated
07:51AM -23.2207 -46.7244 171° South  Level Estimated
07:52AM -23.3215 -46.7073 171° South  Level Estimated
07:53AM -23.4222 -46.6902 171° South  Level Estimated
07:54AM -23.5229 -46.6731 171° South  Level Estimated
07:55AM -23.6237 -46.6559 171° South  Level Estimated
07:56AM -23.6267 -46.6554 171° South  Level Estimated
07:57AM -23.6267 -46.6554 114° Southeast  Level Estimated
07:58AM -23.6267 -46.6554 114° Southeast  Level Estimated
07:59AM -23.6267 -46.6554 114° Southeast  Level Estimated
08:00AM -23.6267 -46.6554 114° Southeast  Level Estimated
08:01AM -23.6267 -46.6554 114° Southeast  Level Estimated
08:02AM -23.6267 -46.6554 114° Southeast  Level Estimated
08:03AM -23.6267 -46.6554 114° Southeast  Level Estimated
08:04AM -23.6267 -46.6554 114° Southeast  Level Estimated
08:05AM -23.6267 -46.6554 114° Southeast  Level Estimated
08:06AM -23.6267 -46.6554 114° Southeast  Level Estimated
08:07AM -23.6267 -46.6554 114° Southeast  Level Estimated
08:08AM -23.6267 -46.6554 114° Southeast  Level Estimated
08:09AM -23.6267 -46.6554 114° Southeast  Level Estimated
08:10AM -23.6267 -46.6554 114° Southeast  Level Estimated
08:11AM -23.6267 -46.6554 114° Southeast  Level Estimated